createdAt,value
2017-06-02T00:00:04.142Z,21.83
2017-06-02T00:01:14.216Z,21.9
2017-06-02T00:02:24.255Z,21.85
2017-06-02T00:03:34.296Z,21.85
2017-06-02T00:04:44.639Z,21.74
2017-06-02T00:05:54.977Z,21.8
2017-06-02T00:07:05.359Z,21.77
2017-06-02T00:08:15.923Z,21.76
2017-06-02T00:09:26.266Z,21.76
2017-06-02T00:10:36.622Z,21.68
2017-06-02T00:11:46.356Z,21.62
2017-06-02T00:12:56.696Z,21.7
2017-06-02T00:14:07.066Z,21.61
2017-06-02T00:15:17.407Z,21.67
2017-06-02T00:16:27.442Z,21.61
2017-06-02T00:17:37.467Z,21.56
2017-06-02T00:18:47.848Z,21.56
2017-06-02T00:19:58.207Z,21.61
2017-06-02T00:21:08.558Z,21.55
2017-06-02T00:22:18.914Z,21.53
2017-06-02T00:23:29.285Z,21.55
2017-06-02T00:24:39.363Z,21.49
2017-06-02T00:25:49.720Z,21.55
2017-06-02T00:26:59.756Z,21.53
2017-06-02T00:28:09.798Z,21.46
2017-06-02T00:29:20.137Z,21.49
2017-06-02T00:30:29.924Z,21.52
2017-06-02T00:31:39.960Z,21.52
2017-06-02T00:32:49.997Z,21.46
2017-06-02T00:34:00.359Z,21.52
2017-06-02T00:35:10.415Z,21.43
2017-06-02T00:36:20.503Z,21.4
2017-06-02T00:37:30.870Z,21.43
2017-06-02T00:38:41.224Z,21.49
2017-06-02T00:39:51.559Z,21.46
2017-06-02T00:41:01.905Z,21.38
2017-06-02T00:42:12.261Z,21.43
2017-06-02T00:43:22.606Z,21.55
2017-06-02T00:44:32.956Z,21.53
2017-06-02T00:45:43.297Z,21.51
2017-06-02T00:46:53.651Z,21.56
2017-06-02T00:48:04.051Z,21.52
2017-06-02T00:49:14.397Z,21.48
2017-06-02T00:50:24.476Z,21.46
2017-06-02T00:51:34.845Z,21.56
2017-06-02T00:52:45.195Z,21.58
2017-06-02T00:53:55.599Z,21.56
2017-06-02T00:55:05.955Z,21.61
2017-06-02T00:56:16.302Z,21.7
2017-06-02T00:57:26.644Z,21.71
2017-06-02T00:58:36.995Z,21.77
2017-06-02T00:59:47.332Z,21.78
2017-06-02T01:00:57.369Z,21.71
2017-06-02T01:02:07.415Z,21.73
2017-06-02T01:03:17.454Z,21.71
2017-06-02T01:04:27.823Z,21.74
2017-06-02T01:05:38.234Z,21.74
2017-06-02T01:06:48.586Z,21.78
2017-06-02T01:07:58.928Z,21.73
2017-06-02T01:09:09.298Z,21.83
2017-06-02T01:10:19.662Z,21.86
2017-06-02T01:11:30.027Z,21.85
2017-06-02T01:12:40.637Z,21.77
2017-06-02T01:13:50.983Z,21.7
2017-06-02T01:15:01.012Z,21.7
2017-06-02T01:16:11.368Z,21.59
2017-06-02T01:17:21.764Z,21.68
2017-06-02T01:18:31.803Z,21.55
2017-06-02T01:19:42.141Z,21.58
2017-06-02T01:20:52.494Z,21.51
2017-06-02T01:22:02.542Z,21.55
2017-06-02T01:23:12.965Z,21.61
2017-06-02T01:24:23.310Z,21.52
2017-06-02T01:25:33.666Z,21.58
2017-06-02T01:26:44.042Z,21.55
2017-06-02T01:27:54.401Z,21.56
2017-06-02T01:29:04.803Z,21.61
2017-06-02T01:30:15.153Z,21.62
2017-06-02T01:31:25.503Z,21.67
2017-06-02T01:32:35.863Z,21.58
2017-06-02T01:33:46.235Z,21.59
2017-06-02T01:34:56.260Z,21.74
2017-06-02T01:36:06.613Z,21.68
2017-06-02T01:37:16.647Z,21.62
2017-06-02T01:38:26.677Z,21.59
2017-06-02T01:39:36.410Z,21.68
2017-06-02T01:40:46.766Z,21.58
2017-06-02T01:41:57.127Z,21.73
2017-06-02T01:43:07.466Z,21.68
2017-06-02T01:44:17.832Z,21.7
2017-06-02T01:45:28.184Z,21.7
2017-06-02T01:46:37.656Z,21.7
2017-06-02T01:47:47.705Z,21.78
2017-06-02T01:48:58.061Z,21.71
2017-06-02T01:50:08.408Z,21.77
2017-06-02T01:51:18.764Z,21.77
2017-06-02T01:52:29.173Z,21.76
2017-06-02T01:53:39.580Z,21.73
2017-06-02T01:54:49.931Z,21.77
2017-06-02T01:55:59.963Z,21.78
2017-06-02T01:57:10.310Z,21.71
2017-06-02T01:58:20.709Z,21.71
2017-06-02T01:59:31.060Z,21.71
2017-06-02T02:00:41.095Z,21.74
2017-06-02T02:01:51.444Z,21.78
2017-06-02T02:03:01.784Z,21.71
2017-06-02T02:04:11.556Z,21.74
2017-06-02T02:05:21.910Z,21.71
2017-06-02T02:06:31.973Z,21.78
2017-06-02T02:07:42.340Z,21.86
2017-06-02T02:08:52.367Z,21.89
2017-06-02T02:10:02.454Z,21.8
2017-06-02T02:11:12.817Z,21.83
2017-06-02T02:12:22.857Z,21.83
2017-06-02T02:13:32.920Z,21.96
2017-06-02T02:14:43.289Z,21.85
2017-06-02T02:15:53.644Z,21.68
2017-06-02T02:17:03.674Z,21.77
2017-06-02T02:18:14.030Z,21.71
2017-06-02T02:19:23.447Z,21.61
2017-06-02T02:20:33.799Z,21.64
2017-06-02T02:21:44.231Z,21.62
2017-06-02T02:22:54.573Z,21.62
2017-06-02T02:24:04.922Z,21.62
2017-06-02T02:25:14.972Z,21.58
2017-06-02T02:26:25.006Z,21.7
2017-06-02T02:27:35.412Z,21.73
2017-06-02T02:28:45.771Z,21.78
2017-06-02T02:29:56.117Z,21.71
2017-06-02T02:31:05.841Z,21.7
2017-06-02T02:32:15.894Z,21.77
2017-06-02T02:33:26.382Z,21.78
2017-06-02T02:34:36.435Z,21.82
2017-06-02T02:35:46.778Z,21.82
2017-06-02T02:36:57.111Z,21.83
2017-06-02T02:38:07.445Z,21.78
2017-06-02T02:39:17.675Z,21.74
2017-06-02T02:40:28.023Z,21.74
2017-06-02T02:41:38.384Z,21.76
2017-06-02T02:42:48.413Z,21.61
2017-06-02T02:43:58.756Z,21.62
2017-06-02T02:45:09.164Z,21.59
2017-06-02T02:46:19.527Z,21.62
2017-06-02T02:47:29.881Z,21.53
2017-06-02T02:48:39.925Z,21.55
2017-06-02T02:49:49.967Z,21.49
2017-06-02T02:51:00.319Z,21.45
2017-06-02T02:52:10.657Z,21.41
2017-06-02T02:53:20.995Z,21.37
2017-06-02T02:54:31.041Z,21.36
2017-06-02T02:55:41.088Z,21.19
2017-06-02T02:56:51.484Z,21.28
2017-06-02T02:58:01.508Z,21.23
2017-06-02T02:59:11.847Z,21.25
2017-06-02T03:00:22.205Z,21.19
2017-06-02T03:01:32.576Z,21.18
2017-06-02T03:33:17.754Z,18.24
2017-06-02T03:34:28.099Z,18.24
2017-06-02T03:35:38.452Z,18.31
2017-06-02T03:36:48.490Z,18.29
2017-06-02T03:37:59.031Z,18.39
2017-06-02T03:39:09.119Z,18.53
2017-06-02T03:40:19.473Z,18.75
2017-06-02T03:41:29.814Z,18.91
2017-06-02T03:42:40.168Z,19.07
2017-06-02T03:43:50.520Z,19.31
2017-06-02T03:45:00.912Z,19.55
2017-06-02T03:46:11.266Z,19.68
2017-06-02T03:47:21.622Z,20
2017-06-02T03:48:31.984Z,20.11
2017-06-02T03:49:42.328Z,20.19
2017-06-02T03:50:52.736Z,20.37
2017-06-02T03:52:03.089Z,20.49
2017-06-02T03:53:13.440Z,20.75
2017-06-02T03:54:23.787Z,20.85
2017-06-02T03:55:34.143Z,21.06
2017-06-02T03:56:44.219Z,21.21
2017-06-02T03:57:54.576Z,21.19
2017-06-02T03:59:04.683Z,21.36
2017-06-02T04:00:15.021Z,21.38
2017-06-02T04:01:25.057Z,21.49
2017-06-02T04:02:35.450Z,21.51
2017-06-02T04:03:45.493Z,21.61
2017-06-02T04:04:55.857Z,21.71
2017-06-02T04:06:05.904Z,21.8
2017-06-02T04:07:16.513Z,21.9
2017-06-02T04:08:26.597Z,21.94
2017-06-02T04:09:36.694Z,21.97
2017-06-02T04:10:47.092Z,22.14
2017-06-02T04:11:57.466Z,22.12
2017-06-02T04:13:07.827Z,22.31
2017-06-02T04:14:18.225Z,22.26
2017-06-02T04:15:28.589Z,22.42
2017-06-02T04:16:38.936Z,22.46
2017-06-02T04:17:48.972Z,22.71
2017-06-02T04:18:59.399Z,23.63
2017-06-02T04:20:09.757Z,24.69
2017-06-02T04:21:20.108Z,25.47
2017-06-02T04:22:30.139Z,26.07
2017-06-02T04:23:40.169Z,26.59
2017-06-02T04:24:50.204Z,27.06
2017-06-02T04:26:00.303Z,27.33
2017-06-02T04:27:10.645Z,27.89
2017-06-02T04:28:20.983Z,28.31
2017-06-02T04:29:31.026Z,28.76
2017-06-02T04:30:40.753Z,29.11
2017-06-02T04:31:50.801Z,29.54
2017-06-02T04:33:01.155Z,29.98
2017-06-02T04:34:11.188Z,30.29
2017-06-02T04:35:20.914Z,30.67
2017-06-02T04:36:30.946Z,31.04
2017-06-02T04:37:40.986Z,31.43
2017-06-02T04:38:51.331Z,31.55
2017-06-02T04:40:01.685Z,31.81
2017-06-02T04:41:11.739Z,32.05
2017-06-02T04:42:22.094Z,32.25
2017-06-02T04:43:32.541Z,32.47
2017-06-02T04:44:42.904Z,32.71
2017-06-02T04:45:53.251Z,32.83
2017-06-02T04:47:03.291Z,32.94
2017-06-02T04:48:13.644Z,33.03
2017-06-02T04:49:23.740Z,33.12
2017-06-02T04:50:34.088Z,33.29
2017-06-02T04:51:44.132Z,33.41
2017-06-02T04:52:54.478Z,33.46
2017-06-02T04:54:04.501Z,33.59
2017-06-02T04:55:14.289Z,33.68
2017-06-02T04:56:24.638Z,33.73
2017-06-02T04:57:34.369Z,33.73
2017-06-02T04:58:44.714Z,33.73
2017-06-02T04:59:54.440Z,33.69
2017-06-02T05:01:04.847Z,33.71
2017-06-02T05:02:14.880Z,33.61
2017-06-02T05:03:25.229Z,33.74
2017-06-02T05:04:35.583Z,33.74
2017-06-02T05:05:45.316Z,33.68
2017-06-02T05:06:55.680Z,33.73
2017-06-02T05:08:05.723Z,33.69
2017-06-02T05:09:16.086Z,33.74
2017-06-02T05:10:26.126Z,33.75
2017-06-02T05:11:36.499Z,33.78
2017-06-02T05:12:46.282Z,33.85
2017-06-02T05:13:56.661Z,33.87
2017-06-02T05:15:06.705Z,33.84
2017-06-02T05:16:17.061Z,33.92
2017-06-02T05:17:27.099Z,33.89
2017-06-02T05:18:37.464Z,33.92
2017-06-02T05:19:47.501Z,33.92
2017-06-02T05:20:57.863Z,33.97
2017-06-02T05:22:08.210Z,33.97
2017-06-02T05:23:18.580Z,34.02
2017-06-02T05:24:28.666Z,34.02
2017-06-02T05:25:38.708Z,34.1
2017-06-02T05:26:48.426Z,34.08
2017-06-02T05:27:58.465Z,34.12
2017-06-02T05:29:08.865Z,34.11
2017-06-02T05:30:19.229Z,33.99
2017-06-02T05:31:29.291Z,33.97
2017-06-02T05:32:39.648Z,34.03
2017-06-02T05:33:49.698Z,33.87
2017-06-02T05:35:00.062Z,33.87
2017-06-02T05:36:10.466Z,33.89
2017-06-02T05:37:20.510Z,33.92
2017-06-02T05:38:31.090Z,33.73
2017-06-02T05:39:41.141Z,33.68
2017-06-02T05:40:51.499Z,33.53
2017-06-02T05:42:01.279Z,33.53
2017-06-02T05:43:11.626Z,33.43
2017-06-02T05:44:21.983Z,33.28
2017-06-02T05:45:32.044Z,32.9
2017-06-02T05:46:42.403Z,32.62
2017-06-02T05:47:52.769Z,32.68
2017-06-02T05:49:03.122Z,32.81
2017-06-02T05:50:13.157Z,32.89
2017-06-02T05:51:23.530Z,32.8
2017-06-02T05:52:33.885Z,32.9
2017-06-02T05:53:43.933Z,32.86
2017-06-02T05:54:53.964Z,32.93
2017-06-02T05:56:03.999Z,32.84
2017-06-02T05:57:14.336Z,32.81
2017-06-02T05:58:24.682Z,32.87
2017-06-02T05:59:35.035Z,32.81
2017-06-02T06:00:45.077Z,32.71
2017-06-02T06:01:55.135Z,32.57
2017-06-02T06:03:05.495Z,32.64
2017-06-02T06:04:15.852Z,32.68
2017-06-02T06:05:26.522Z,32.46
2017-06-02T06:06:36.571Z,32.62
2017-06-02T06:07:46.928Z,32.47
2017-06-02T06:08:56.955Z,32.45
2017-06-02T06:10:06.996Z,32.46
2017-06-02T06:11:17.388Z,32.37
2017-06-02T06:12:27.118Z,32.13
2017-06-02T06:13:37.465Z,31.59
2017-06-02T06:14:47.800Z,31.4
2017-06-02T06:15:58.170Z,31.1
2017-06-02T06:17:08.269Z,30.99
2017-06-02T06:18:18.634Z,31.13
2017-06-02T06:19:28.350Z,31.33
2017-06-02T06:20:38.713Z,31.67
2017-06-02T06:21:49.066Z,31.63
2017-06-02T06:22:59.453Z,31.4
2017-06-02T06:24:09.831Z,31.62
2017-06-02T06:25:20.193Z,31.8
2017-06-02T06:26:30.247Z,32.09
2017-06-02T06:27:40.296Z,32.05
2017-06-02T06:28:50.350Z,31.88
2017-06-02T06:30:00.712Z,31.6
2017-06-02T06:31:11.052Z,31.4
2017-06-02T06:32:20.792Z,31.25
2017-06-02T06:33:30.812Z,30.94
2017-06-02T06:34:40.857Z,30.82
2017-06-02T06:35:51.237Z,30.75
2017-06-02T06:37:01.586Z,30.48
2017-06-02T06:38:11.637Z,30.48
2017-06-02T06:39:21.996Z,30.29
2017-06-02T06:40:32.333Z,30.28
2017-06-02T06:41:42.700Z,30.21
2017-06-02T06:42:53.063Z,30.16
2017-06-02T06:44:03.117Z,30.18
2017-06-02T06:45:13.484Z,30.11
2017-06-02T06:46:23.268Z,30.07
2017-06-02T06:47:33.634Z,30.03
2017-06-02T06:48:43.394Z,29.95
2017-06-02T06:49:53.445Z,29.91
2017-06-02T06:51:03.493Z,29.79
2017-06-02T06:52:13.575Z,29.61
2017-06-02T06:53:23.292Z,29.52
2017-06-02T06:54:33.647Z,29.55
2017-06-02T06:55:43.690Z,29.42
2017-06-02T06:56:53.408Z,29.48
2017-06-02T06:58:03.447Z,29.1
2017-06-02T06:59:13.808Z,28.94
2017-06-02T07:00:24.157Z,28.78
2017-06-02T07:01:34.517Z,29.03
2017-06-02T07:02:44.867Z,29.01
2017-06-02T07:03:54.334Z,28.88
2017-06-02T07:05:04.686Z,28.65
2017-06-02T07:06:15.055Z,28.95
2017-06-02T07:07:25.425Z,29.02
2017-06-02T07:08:35.790Z,29.08
2017-06-02T07:09:46.136Z,29.06
2017-06-02T07:10:56.494Z,29.03
2017-06-02T07:12:06.225Z,29.14
2017-06-02T07:13:16.572Z,29.13
2017-06-02T07:14:26.934Z,29.06
2017-06-02T07:15:37.041Z,29.01
2017-06-02T07:16:47.382Z,28.98
2017-06-02T07:17:57.133Z,28.91
2017-06-02T07:19:07.482Z,28.85
2017-06-02T07:20:17.830Z,28.88
2017-06-02T07:21:27.950Z,28.97
2017-06-02T07:22:38.290Z,28.92
2017-06-02T07:23:48.024Z,29.02
2017-06-02T07:24:58.387Z,28.94
2017-06-02T07:26:08.751Z,29.01
2017-06-02T07:27:19.159Z,28.95
2017-06-02T07:28:28.565Z,28.92
2017-06-02T07:29:38.303Z,28.97
2017-06-02T07:30:48.335Z,29.02
2017-06-02T07:31:58.387Z,29.06
2017-06-02T07:33:08.801Z,29.08
2017-06-02T07:34:19.159Z,29.13
2017-06-02T07:35:29.506Z,29.24
2017-06-02T07:36:39.556Z,29.2
2017-06-02T07:37:49.899Z,29.28
2017-06-02T07:38:59.635Z,29.32
2017-06-02T07:40:10.006Z,29.3
2017-06-02T07:41:20.356Z,29.32
2017-06-02T07:42:30.700Z,29.38
2017-06-02T07:43:40.748Z,29.33
2017-06-02T07:44:50.834Z,29.36
2017-06-02T07:46:00.886Z,29.36
2017-06-02T07:47:11.233Z,29.42
2017-06-02T07:48:21.589Z,29.42
2017-06-02T07:49:31.938Z,29.42
2017-06-02T07:50:42.344Z,29.4
2017-06-02T07:51:52.375Z,29.43
2017-06-02T07:53:02.425Z,29.5
2017-06-02T07:54:12.479Z,29.48
2017-06-02T07:55:22.838Z,29.39
2017-06-02T07:56:31.950Z,29.52
2017-06-02T07:57:42.321Z,29.57
2017-06-02T07:58:52.375Z,29.66
2017-06-02T08:00:02.108Z,29.73
2017-06-02T08:01:12.506Z,29.79
2017-06-02T08:02:22.917Z,29.82
2017-06-02T08:03:33.262Z,29.91
2017-06-02T08:04:43.300Z,30
2017-06-02T08:05:53.343Z,30.02
2017-06-02T08:07:03.710Z,30.07
2017-06-02T08:08:13.471Z,30.1
2017-06-02T08:09:23.827Z,30.16
2017-06-02T08:10:34.171Z,30.24
2017-06-02T08:11:44.545Z,30.26
2017-06-02T08:12:54.902Z,30.44
2017-06-02T08:14:05.308Z,30.44
2017-06-02T08:15:15.668Z,30.56
2017-06-02T08:16:25.721Z,30.63
2017-06-02T08:17:36.066Z,30.73
2017-06-02T08:18:46.174Z,30.79
2017-06-02T08:19:56.520Z,30.88
2017-06-02T08:21:06.880Z,31.04
2017-06-02T08:22:16.936Z,31.18
2017-06-02T08:23:26.670Z,31.31
2017-06-02T08:24:37.035Z,31.41
2017-06-02T08:25:47.446Z,31.45
2017-06-02T08:26:56.904Z,31.62
2017-06-02T08:28:07.262Z,31.67
2017-06-02T08:29:17.301Z,31.91
2017-06-02T08:30:27.650Z,32
2017-06-02T08:31:37.449Z,32.1
2017-06-02T08:32:47.793Z,32.15
2017-06-02T08:33:58.140Z,32.12
2017-06-02T08:35:07.865Z,32.09
2017-06-02T08:36:18.225Z,32.12
2017-06-02T08:37:28.635Z,32.05
2017-06-02T08:38:39.076Z,32.15
2017-06-02T08:39:49.113Z,32.08
2017-06-02T08:40:59.474Z,32.15
2017-06-02T08:42:09.538Z,32.24
2017-06-02T08:43:19.640Z,32.17
2017-06-02T08:44:29.995Z,32.3
2017-06-02T08:45:40.345Z,32.35
2017-06-02T08:46:50.390Z,32.38
2017-06-02T08:48:00.744Z,32.3
2017-06-02T08:49:11.201Z,32.23
2017-06-02T08:50:20.944Z,32.16
2017-06-02T08:51:31.303Z,32.28
2017-06-02T08:52:41.337Z,32.38
2017-06-02T08:53:51.695Z,32.39
2017-06-02T08:55:02.053Z,32.32
2017-06-02T08:56:12.093Z,32.39
2017-06-02T08:57:22.133Z,32.35
2017-06-02T08:58:32.500Z,32.46
2017-06-02T08:59:42.854Z,32.47
2017-06-02T09:00:53.261Z,32.46
2017-06-02T09:02:03.647Z,32.52
2017-06-02T09:03:13.697Z,32.57
2017-06-02T09:04:24.090Z,32.46
2017-06-02T09:05:34.129Z,32.39
2017-06-02T09:06:44.493Z,32.49
2017-06-02T09:07:54.855Z,32.46
2017-06-02T09:09:05.207Z,32.56
2017-06-02T09:10:15.602Z,32.64
2017-06-02T09:11:25.957Z,32.75
2017-06-02T09:12:36.326Z,32.84
2017-06-02T09:13:46.750Z,32.91
2017-06-02T09:14:57.126Z,32.94
2017-06-02T09:16:07.522Z,32.83
2017-06-02T09:17:17.880Z,32.89
2017-06-02T09:18:28.234Z,32.8
2017-06-02T09:19:38.588Z,32.72
2017-06-02T09:20:48.624Z,32.75
2017-06-02T09:21:58.716Z,32.62
2017-06-02T09:23:09.072Z,32.71
2017-06-02T09:24:19.445Z,32.64
2017-06-02T09:25:29.487Z,32.59
2017-06-02T09:26:39.851Z,32.65
2017-06-02T09:27:50.237Z,32.47
2017-06-02T09:29:00.591Z,32.49
2017-06-02T09:30:10.965Z,32.46
2017-06-02T09:31:21.312Z,32.38
2017-06-02T09:32:31.654Z,32.37
2017-06-02T09:33:41.767Z,32.38
2017-06-02T09:34:51.507Z,32.39
2017-06-02T09:36:01.876Z,32.35
2017-06-02T09:37:11.914Z,32.34
2017-06-02T09:38:21.953Z,32.45
2017-06-02T09:39:32.362Z,32.46
2017-06-02T09:40:42.405Z,32.47
2017-06-02T09:41:52.781Z,32.47
2017-06-02T09:43:03.153Z,32.57
2017-06-02T09:44:13.524Z,32.45
2017-06-02T09:45:23.939Z,32.49
2017-06-02T09:46:34.295Z,32.62
2017-06-02T09:47:44.671Z,32.67
2017-06-02T09:48:55.032Z,32.72
2017-06-02T09:50:05.610Z,32.76
2017-06-02T09:51:16.026Z,32.9
2017-06-02T09:52:26.393Z,32.89
2017-06-02T09:53:36.746Z,33.01
2017-06-02T09:54:47.121Z,33.03
2017-06-02T09:55:57.162Z,33.09
2017-06-02T09:57:07.555Z,33.08
2017-06-02T09:58:17.603Z,33.03
2017-06-02T09:59:27.967Z,32.98
2017-06-02T10:00:38.025Z,32.96
2017-06-02T10:01:48.072Z,32.84
2017-06-02T10:02:58.503Z,32.83
2017-06-02T10:04:08.544Z,32.86
2017-06-02T10:05:18.903Z,32.93
2017-06-02T10:06:28.955Z,32.94
2017-06-02T10:07:39.320Z,32.96
2017-06-02T10:08:49.363Z,32.98
2017-06-02T10:09:59.735Z,32.99
2017-06-02T10:11:10.305Z,33.02
2017-06-02T10:12:20.340Z,33.02
2017-06-02T10:13:30.708Z,33.05
2017-06-02T10:14:40.812Z,33.12
2017-06-02T10:15:51.234Z,33.03
2017-06-02T10:17:01.599Z,33.05
2017-06-02T10:18:11.951Z,33.08
2017-06-02T10:19:22.338Z,33.11
2017-06-02T10:20:32.447Z,33.2
2017-06-02T10:21:42.812Z,33.18
2017-06-02T10:22:53.168Z,33.17
2017-06-02T10:24:03.217Z,33.11
2017-06-02T10:25:13.606Z,33.11
2017-06-02T10:26:23.703Z,33.18
2017-06-02T10:27:34.065Z,33.21
2017-06-02T10:28:44.423Z,33.18
2017-06-02T10:29:54.785Z,33.16
2017-06-02T10:31:05.144Z,33.31
2017-06-02T10:32:15.237Z,33.46
2017-06-02T10:33:25.589Z,33.47
2017-06-02T10:34:35.637Z,33.53
2017-06-02T10:35:46.002Z,33.55
2017-06-02T10:36:56.056Z,33.56
2017-06-02T10:38:06.424Z,33.61
2017-06-02T10:39:16.789Z,33.62
2017-06-02T10:40:27.145Z,33.63
2017-06-02T10:41:36.882Z,33.68
2017-06-02T10:42:47.229Z,33.71
2017-06-02T10:43:57.640Z,33.75
2017-06-02T10:45:07.379Z,33.75
2017-06-02T10:46:17.429Z,33.71
2017-06-02T10:47:27.858Z,33.8
2017-06-02T10:48:38.215Z,33.73
2017-06-02T10:49:48.630Z,33.69
2017-06-02T10:50:58.677Z,33.66
2017-06-02T10:52:08.426Z,33.58
2017-06-02T10:53:18.836Z,33.58
2017-06-02T10:54:28.915Z,33.56
2017-06-02T10:55:39.370Z,33.46
2017-06-02T10:56:49.776Z,33.48
2017-06-02T10:57:59.836Z,33.47
2017-06-02T10:59:10.435Z,33.46
2017-06-02T11:00:20.210Z,33.55
2017-06-02T11:01:30.621Z,33.52
2017-06-02T11:02:41.210Z,33.55
2017-06-02T11:03:50.975Z,33.52
2017-06-02T11:05:01.021Z,33.53
2017-06-02T11:06:11.060Z,33.56
2017-06-02T11:07:21.119Z,33.53
2017-06-02T11:08:31.202Z,33.48
2017-06-02T11:09:41.585Z,33.52
2017-06-02T11:10:51.632Z,33.58
2017-06-02T11:12:02.008Z,33.65
2017-06-02T11:13:11.769Z,33.69
2017-06-02T11:14:22.148Z,33.73
2017-06-02T11:15:32.514Z,33.75
2017-06-02T11:16:42.894Z,33.71
2017-06-02T11:17:52.922Z,33.75
2017-06-02T11:19:03.330Z,33.8
2017-06-02T11:20:13.720Z,33.75
2017-06-02T11:21:24.119Z,33.71
2017-06-02T11:22:34.209Z,33.78
2017-06-02T11:23:44.603Z,33.71
2017-06-02T11:24:55.008Z,33.73
2017-06-02T11:26:05.048Z,33.85
2017-06-02T11:27:15.097Z,33.69
2017-06-02T11:28:25.168Z,33.74
2017-06-02T11:29:35.543Z,33.68
2017-06-02T11:30:46.137Z,33.74
2017-06-02T11:31:56.192Z,33.73
2017-06-02T11:33:06.255Z,33.9
2017-06-02T11:34:16.602Z,33.97
2017-06-02T11:35:26.658Z,33.92
2017-06-02T11:36:36.716Z,33.9
2017-06-02T11:37:46.823Z,33.85
2017-06-02T11:38:56.994Z,33.84
2017-06-02T11:40:07.355Z,33.83
2017-06-02T11:41:17.808Z,33.78
2017-06-02T11:42:28.032Z,33.85
2017-06-02T11:43:38.202Z,33.93
2017-06-02T11:44:48.334Z,33.96
2017-06-02T11:45:58.736Z,34.03
2017-06-02T11:47:09.102Z,34.1
2017-06-02T11:48:19.465Z,34.17
2017-06-02T11:49:29.819Z,34.32
2017-06-02T11:50:40.211Z,34.34
2017-06-02T11:51:50.651Z,34.45
2017-06-02T11:53:01.085Z,34.43
2017-06-02T11:54:11.172Z,34.36
2017-06-02T11:55:21.539Z,34.26
2017-06-02T11:56:31.906Z,34.18
2017-06-02T11:57:41.659Z,34.11
2017-06-02T11:58:52.019Z,34.1
2017-06-02T12:00:02.064Z,34.06
2017-06-02T12:01:12.123Z,34.06
2017-06-02T12:02:22.231Z,34.22
2017-06-02T12:03:32.287Z,34.27
2017-06-02T12:04:42.380Z,34.21
2017-06-02T12:05:52.879Z,34.19
2017-06-02T12:07:03.282Z,34.15
2017-06-02T12:08:12.985Z,34.22
2017-06-02T12:09:23.344Z,34.33
2017-06-02T12:10:33.707Z,34.19
2017-06-02T12:11:44.138Z,34.24
2017-06-02T12:12:53.870Z,34.21
2017-06-02T12:14:03.910Z,34.12
2017-06-02T12:15:13.973Z,34.14
2017-06-02T12:16:24.022Z,34.08
2017-06-02T12:17:34.128Z,34.03
2017-06-02T12:18:44.172Z,34
2017-06-02T12:19:54.546Z,33.9
2017-06-02T12:21:04.898Z,34.03
2017-06-02T12:22:14.944Z,34.05
2017-06-02T12:23:25.036Z,34.08
2017-06-02T12:24:35.090Z,34.12
2017-06-02T12:25:45.160Z,34.3
2017-06-02T12:26:54.901Z,34.36
2017-06-02T12:28:05.264Z,34.33
2017-06-02T12:29:15.640Z,34.39
2017-06-02T12:30:26.006Z,34.43
2017-06-02T12:31:36.355Z,34.55
2017-06-02T12:32:46.412Z,34.54
2017-06-02T12:33:56.787Z,34.51
2017-06-02T12:35:07.199Z,34.41
2017-06-02T12:36:17.558Z,34.51
2017-06-02T12:37:27.960Z,34.49
2017-06-02T12:38:38.006Z,34.51
2017-06-02T12:39:48.248Z,34.39
2017-06-02T12:40:58.335Z,34.43
2017-06-02T12:42:08.700Z,34.43
2017-06-02T12:43:19.055Z,34.46
2017-06-02T12:44:29.108Z,34.29
2017-06-02T12:45:39.468Z,34.45
2017-06-02T12:46:49.828Z,34.45
2017-06-02T12:48:00.205Z,34.43
2017-06-02T12:49:10.564Z,34.48
2017-06-02T12:50:20.928Z,34.41
2017-06-02T12:51:31.295Z,34.41
2017-06-02T12:52:41.696Z,34.41
2017-06-02T12:53:51.741Z,34.34
2017-06-02T12:55:01.805Z,34.34
2017-06-02T12:56:12.176Z,34.4
2017-06-02T12:57:21.912Z,34.54
2017-06-02T12:58:31.703Z,34.64
2017-06-02T12:59:42.113Z,34.74
2017-06-02T13:00:52.496Z,34.83
2017-06-02T13:02:02.862Z,34.87
2017-06-02T13:03:13.224Z,34.96
2017-06-02T13:04:23.325Z,35.09
2017-06-02T13:05:33.684Z,35.26
2017-06-02T13:06:43.415Z,35.18
2017-06-02T13:07:53.764Z,35.15
2017-06-02T13:09:03.786Z,35.15
2017-06-02T13:10:14.206Z,35.11
2017-06-02T13:11:24.550Z,35.2
2017-06-02T13:12:34.935Z,35.16
2017-06-02T13:13:44.988Z,35.24
2017-06-02T13:14:55.335Z,35.24
2017-06-02T13:16:05.755Z,35.15
2017-06-02T13:17:15.818Z,35.02
2017-06-02T13:18:26.194Z,35.05
2017-06-02T13:19:35.930Z,35.09
2017-06-02T13:20:45.967Z,35.12
2017-06-02T13:21:56.370Z,35.15
2017-06-02T13:23:06.411Z,35.38
2017-06-02T13:24:15.820Z,35.47
2017-06-02T13:25:26.181Z,35.57
2017-06-02T13:26:36.542Z,35.72
2017-06-02T13:27:46.939Z,35.82
2017-06-02T13:28:57.296Z,35.82
2017-06-02T13:30:07.666Z,35.92
2017-06-02T13:31:18.019Z,35.86
2017-06-02T13:32:28.072Z,35.87
2017-06-02T13:33:38.476Z,35.84
2017-06-02T13:34:48.859Z,35.94
2017-06-02T13:35:58.907Z,35.95
2017-06-02T13:37:09.278Z,35.94
2017-06-02T13:38:19.642Z,35.87
2017-06-02T13:39:29.996Z,35.9
2017-06-02T13:40:40.355Z,35.87
2017-06-02T13:41:50.710Z,35.89
2017-06-02T13:43:01.074Z,35.79
2017-06-02T13:44:11.136Z,35.86
2017-06-02T13:45:21.563Z,35.82
2017-06-02T13:46:31.946Z,35.79
2017-06-02T13:47:42.018Z,35.72
2017-06-02T13:48:52.437Z,35.3
2017-06-02T13:50:02.848Z,34.89
2017-06-02T13:51:12.711Z,34.52
2017-06-02T13:52:23.184Z,34.34
2017-06-02T13:53:33.646Z,34.18
2017-06-02T13:54:44.307Z,34.02
2017-06-02T13:55:54.717Z,33.97
2017-06-02T13:57:04.763Z,34.22
2017-06-02T13:58:15.145Z,34.49
2017-06-02T13:59:25.511Z,34.64
2017-06-02T14:00:35.872Z,34.81
2017-06-02T14:01:45.608Z,34.43
2017-06-02T14:02:55.681Z,34.41
2017-06-02T14:04:06.052Z,34.45
2017-06-02T14:05:16.430Z,34.55
2017-06-02T14:06:26.819Z,34.54
2017-06-02T14:07:37.195Z,34.66
2017-06-02T14:08:47.256Z,34.41
2017-06-02T14:09:57.323Z,33.97
2017-06-02T14:11:07.705Z,33.71
2017-06-02T14:12:18.078Z,33.53
2017-06-02T14:13:28.447Z,33.59
2017-06-02T14:14:38.891Z,33.85
2017-06-02T14:15:49.263Z,34.03
2017-06-02T14:16:59.659Z,34.1
2017-06-02T14:18:10.029Z,34.14
2017-06-02T14:19:20.429Z,34.21
2017-06-02T14:20:30.540Z,34.17
2017-06-02T14:21:40.927Z,34.29
2017-06-02T14:22:51.294Z,34.36
2017-06-02T14:24:01.352Z,34.17
2017-06-02T14:25:11.478Z,34.05
2017-06-02T14:26:21.278Z,33.74
2017-06-02T14:27:31.035Z,33.96
2017-06-02T14:28:41.397Z,33.95
2017-06-02T14:29:51.792Z,33.81
2017-06-02T14:31:01.873Z,33.41
2017-06-02T14:32:12.290Z,33.2
2017-06-02T14:33:22.668Z,33.01
2017-06-02T14:34:33.040Z,32.81
2017-06-02T14:35:43.409Z,32.61
2017-06-02T14:36:53.783Z,32.52
2017-06-02T14:38:04.221Z,32.53
2017-06-02T14:39:14.592Z,32.34
2017-06-02T14:40:24.646Z,32.56
2017-06-02T14:41:35.035Z,32.5
2017-06-02T14:42:45.110Z,32.5
2017-06-02T14:43:55.479Z,32.62
2017-06-02T14:45:05.536Z,32.64
2017-06-02T14:46:15.900Z,32.5
2017-06-02T14:47:26.254Z,32.47
2017-06-02T14:48:36.627Z,32.37
2017-06-02T14:49:46.432Z,32.39
2017-06-02T14:50:56.171Z,32.38
2017-06-02T14:52:06.234Z,32.3
2017-06-02T14:53:16.621Z,32.2
2017-06-02T14:54:26.989Z,32.17
2017-06-02T14:55:37.680Z,32.05
2017-06-02T14:56:47.745Z,32.08
2017-06-02T14:57:57.805Z,32.06
2017-06-02T14:59:08.093Z,32.03
2017-06-02T15:00:18.462Z,32.42
2017-06-02T15:01:28.897Z,32.56
2017-06-02T15:02:39.285Z,32.72
2017-06-02T15:03:49.665Z,32.86
2017-06-02T15:05:00.047Z,33.03
2017-06-02T15:06:10.352Z,33.18
2017-06-02T15:07:20.783Z,33.23
2017-06-02T15:08:30.230Z,33.13
2017-06-02T15:09:40.600Z,33.09
2017-06-02T15:10:50.660Z,33.26
2017-06-02T15:12:01.030Z,33.37
2017-06-02T15:13:11.133Z,33.34
2017-06-02T15:14:21.205Z,33.41
2017-06-02T15:15:31.595Z,33.23
2017-06-02T15:16:41.979Z,32.9
2017-06-02T15:17:52.326Z,32.76
2017-06-02T15:19:02.741Z,32.68
2017-06-02T15:20:13.116Z,32.49
2017-06-02T15:21:23.488Z,32.62
2017-06-02T15:22:33.855Z,32.81
2017-06-02T15:23:43.601Z,33.01
2017-06-02T15:24:53.736Z,33.23
2017-06-02T15:26:04.145Z,33.12
2017-06-02T15:27:14.548Z,33.23
2017-06-02T15:28:24.657Z,33.37
2017-06-02T15:29:35.071Z,33.37
2017-06-02T15:30:45.525Z,33.41
2017-06-02T15:31:55.944Z,33.43
2017-06-02T15:33:06.361Z,33.46
2017-06-02T15:34:16.776Z,33.5
2017-06-02T15:35:27.176Z,33.47
2017-06-02T15:36:37.615Z,33.48